sensor_id;sensor_type;location;lat;lon;timestamp;P1;durP1;ratioP1;P2;durP2;ratioP2
53521;SDS011;39398;48.382;9.802;2022-10-31T00:00:02;9.30;;;2.42;;
53521;SDS011;39398;48.382;9.802;2022-10-31T00:01:08;11.38;;;2.90;;
53521;SDS011;39398;48.382;9.802;2022-10-31T00:02:11;5.65;;;2.83;;
53521;SDS011;39398;48.382;9.802;2022-10-31T00:03:13;8.48;;;2.40;;
53521;SDS011;39398;48.382;9.802;2022-10-31T00:04:14;7.30;;;2.70;;
53521;SDS011;39398;48.382;9.802;2022-10-31T00:05:16;9.07;;;2.97;;
53521;SDS011;39398;48.382;9.802;2022-10-31T00:06:17;8.88;;;2.40;;
53521;SDS011;39398;48.382;9.802;2022-10-31T00:07:19;9.52;;;2.88;;
53521;SDS011;39398;48.382;9.802;2022-10-31T00:08:20;8.85;;;2.50;;
53521;SDS011;39398;48.382;9.802;2022-10-31T00:09:22;8.18;;;2.60;;
53521;SDS011;39398;48.382;9.802;2022-10-31T00:10:23;12.75;;;2.60;;
53521;SDS011;39398;48.382;9.802;2022-10-31T00:11:24;12.30;;;3.00;;
53521;SDS011;39398;48.382;9.802;2022-10-31T00:12:26;11.23;;;2.60;;
53521;SDS011;39398;48.382;9.802;2022-10-31T00:13:29;12.30;;;3.20;;
53521;SDS011;39398;48.382;9.802;2022-10-31T00:14:32;7.57;;;2.28;;
53521;SDS011;39398;48.382;9.802;2022-10-31T00:15:33;11.10;;;3.20;;
53521;SDS011;39398;48.382;9.802;2022-10-31T00:16:35;12.18;;;3.40;;
53521;SDS011;39398;48.382;9.802;2022-10-31T00:17:36;9.70;;;2.70;;
53521;SDS011;39398;48.382;9.802;2022-10-31T00:18:38;9.02;;;2.55;;
53521;SDS011;39398;48.382;9.802;2022-10-31T00:19:39;10.32;;;2.72;;
53521;SDS011;39398;48.382;9.802;2022-10-31T00:20:41;5.63;;;2.17;;
53521;SDS011;39398;48.382;9.802;2022-10-31T00:21:42;14.00;;;3.00;;
53521;SDS011;39398;48.382;9.802;2022-10-31T00:22:44;10.82;;;3.03;;
53521;SDS011;39398;48.382;9.802;2022-10-31T00:23:45;15.23;;;2.95;;
53521;SDS011;39398;48.382;9.802;2022-10-31T00:24:47;7.18;;;2.53;;
53521;SDS011;39398;48.382;9.802;2022-10-31T00:25:48;8.13;;;2.58;;
53521;SDS011;39398;48.382;9.802;2022-10-31T00:26:50;12.82;;;3.00;;
53521;SDS011;39398;48.382;9.802;2022-10-31T00:27:51;8.95;;;2.72;;
53521;SDS011;39398;48.382;9.802;2022-10-31T00:28:54;9.05;;;2.70;;
53521;SDS011;39398;48.382;9.802;2022-10-31T00:29:55;11.38;;;3.42;;
53521;SDS011;39398;48.382;9.802;2022-10-31T00:31:00;8.57;;;2.35;;
53521;SDS011;39398;48.382;9.802;2022-10-31T00:32:02;11.50;;;3.10;;
53521;SDS011;39398;48.382;9.802;2022-10-31T00:33:04;9.95;;;2.60;;
53521;SDS011;39398;48.382;9.802;2022-10-31T00:34:05;10.02;;;3.08;;
53521;SDS011;39398;48.382;9.802;2022-10-31T00:35:07;10.07;;;2.47;;
53521;SDS011;39398;48.382;9.802;2022-10-31T00:36:10;11.20;;;2.85;;
53521;SDS011;39398;48.382;9.802;2022-10-31T00:37:12;8.55;;;2.63;;
53521;SDS011;39398;48.382;9.802;2022-10-31T00:38:14;7.35;;;3.38;;
53521;SDS011;39398;48.382;9.802;2022-10-31T00:39:15;12.20;;;2.75;;
53521;SDS011;39398;48.382;9.802;2022-10-31T00:40:17;10.90;;;2.72;;
53521;SDS011;39398;48.382;9.802;2022-10-31T00:41:18;10.77;;;2.60;;
53521;SDS011;39398;48.382;9.802;2022-10-31T00:42:20;12.02;;;3.00;;
53521;SDS011;39398;48.382;9.802;2022-10-31T00:43:21;9.55;;;2.47;;
53521;SDS011;39398;48.382;9.802;2022-10-31T00:44:24;12.38;;;3.05;;
53521;SDS011;39398;48.382;9.802;2022-10-31T00:45:25;11.20;;;2.55;;
53521;SDS011;39398;48.382;9.802;2022-10-31T00:46:27;9.00;;;2.42;;
53521;SDS011;39398;48.382;9.802;2022-10-31T00:47:28;8.93;;;2.50;;
53521;SDS011;39398;48.382;9.802;2022-10-31T00:48:30;15.13;;;2.70;;
53521;SDS011;39398;48.382;9.802;2022-10-31T00:49:31;9.07;;;2.65;;
53521;SDS011;39398;48.382;9.802;2022-10-31T00:50:33;12.38;;;2.67;;
53521;SDS011;39398;48.382;9.802;2022-10-31T00:51:34;9.48;;;2.55;;
53521;SDS011;39398;48.382;9.802;2022-10-31T00:52:36;8.00;;;2.58;;
53521;SDS011;39398;48.382;9.802;2022-10-31T00:53:37;8.23;;;2.38;;
53521;SDS011;39398;48.382;9.802;2022-10-31T00:54:39;9.27;;;2.65;;
53521;SDS011;39398;48.382;9.802;2022-10-31T00:55:40;6.30;;;2.20;;
53521;SDS011;39398;48.382;9.802;2022-10-31T00:56:41;5.90;;;2.30;;
53521;SDS011;39398;48.382;9.802;2022-10-31T00:57:45;14.13;;;2.67;;
53521;SDS011;39398;48.382;9.802;2022-10-31T00:58:47;6.88;;;2.30;;
53521;SDS011;39398;48.382;9.802;2022-10-31T00:59:50;11.23;;;2.70;;
53521;SDS011;39398;48.382;9.802;2022-10-31T01:00:51;6.78;;;2.22;;
53521;SDS011;39398;48.382;9.802;2022-10-31T01:01:54;8.40;;;1.95;;
53521;SDS011;39398;48.382;9.802;2022-10-31T01:02:55;7.60;;;2.50;;
53521;SDS011;39398;48.382;9.802;2022-10-31T01:03:57;7.30;;;2.38;;
53521;SDS011;39398;48.382;9.802;2022-10-31T01:04:59;7.55;;;2.60;;
53521;SDS011;39398;48.382;9.802;2022-10-31T01:06:02;7.65;;;2.38;;
53521;SDS011;39398;48.382;9.802;2022-10-31T01:07:05;12.48;;;2.58;;
53521;SDS011;39398;48.382;9.802;2022-10-31T01:08:06;10.35;;;2.63;;
53521;SDS011;39398;48.382;9.802;2022-10-31T01:09:08;8.75;;;2.40;;
53521;SDS011;39398;48.382;9.802;2022-10-31T01:10:10;10.80;;;2.78;;
53521;SDS011;39398;48.382;9.802;2022-10-31T01:11:12;10.75;;;2.28;;
53521;SDS011;39398;48.382;9.802;2022-10-31T01:12:16;7.90;;;2.25;;
53521;SDS011;39398;48.382;9.802;2022-10-31T01:13:17;8.30;;;2.17;;
53521;SDS011;39398;48.382;9.802;2022-10-31T01:14:19;7.03;;;2.10;;
53521;SDS011;39398;48.382;9.802;2022-10-31T01:15:22;7.78;;;2.08;;
53521;SDS011;39398;48.382;9.802;2022-10-31T01:16:25;6.05;;;1.65;;
53521;SDS011;39398;48.382;9.802;2022-10-31T01:17:27;10.00;;;2.28;;
53521;SDS011;39398;48.382;9.802;2022-10-31T01:18:29;6.85;;;2.25;;
53521;SDS011;39398;48.382;9.802;2022-10-31T01:19:31;7.40;;;2.53;;
53521;SDS011;39398;48.382;9.802;2022-10-31T01:20:32;6.90;;;2.30;;
53521;SDS011;39398;48.382;9.802;2022-10-31T01:21:34;6.38;;;2.05;;
53521;SDS011;39398;48.382;9.802;2022-10-31T01:22:35;6.55;;;2.20;;
53521;SDS011;39398;48.382;9.802;2022-10-31T01:23:37;8.73;;;2.03;;
53521;SDS011;39398;48.382;9.802;2022-10-31T01:24:38;7.65;;;2.33;;
53521;SDS011;39398;48.382;9.802;2022-10-31T01:25:40;12.80;;;3.17;;
53521;SDS011;39398;48.382;9.802;2022-10-31T01:26:41;7.40;;;2.50;;
53521;SDS011;39398;48.382;9.802;2022-10-31T01:27:43;7.03;;;1.95;;
53521;SDS011;39398;48.382;9.802;2022-10-31T01:28:45;10.93;;;2.50;;
53521;SDS011;39398;48.382;9.802;2022-10-31T01:29:48;6.40;;;2.33;;
53521;SDS011;39398;48.382;9.802;2022-10-31T01:30:51;10.57;;;2.92;;
53521;SDS011;39398;48.382;9.802;2022-10-31T01:31:52;8.70;;;2.35;;
53521;SDS011;39398;48.382;9.802;2022-10-31T01:32:53;9.10;;;2.10;;
53521;SDS011;39398;48.382;9.802;2022-10-31T01:33:55;9.90;;;2.33;;
53521;SDS011;39398;48.382;9.802;2022-10-31T01:34:57;6.50;;;2.20;;
53521;SDS011;39398;48.382;9.802;2022-10-31T01:35:59;7.78;;;2.28;;
53521;SDS011;39398;48.382;9.802;2022-10-31T01:37:00;11.95;;;2.00;;
53521;SDS011;39398;48.382;9.802;2022-10-31T01:38:02;10.70;;;2.28;;
53521;SDS011;39398;48.382;9.802;2022-10-31T01:39:05;7.50;;;2.17;;
53521;SDS011;39398;48.382;9.802;2022-10-31T01:40:08;10.20;;;2.03;;
53521;SDS011;39398;48.382;9.802;2022-10-31T01:41:10;5.45;;;2.15;;
53521;SDS011;39398;48.382;9.802;2022-10-31T01:42:15;8.88;;;2.00;;
53521;SDS011;39398;48.382;9.802;2022-10-31T01:43:19;5.60;;;1.92;;
53521;SDS011;39398;48.382;9.802;2022-10-31T01:45:54;5.72;;;1.80;;
53521;SDS011;39398;48.382;9.802;2022-10-31T01:46:56;9.07;;;2.20;;
53521;SDS011;39398;48.382;9.802;2022-10-31T01:48:00;8.65;;;2.38;;
53521;SDS011;39398;48.382;9.802;2022-10-31T01:49:03;9.43;;;2.70;;
53521;SDS011;39398;48.382;9.802;2022-10-31T01:50:10;8.27;;;2.63;;
53521;SDS011;39398;48.382;9.802;2022-10-31T01:51:14;9.95;;;2.42;;
53521;SDS011;39398;48.382;9.802;2022-10-31T01:52:20;8.27;;;2.33;;
53521;SDS011;39398;48.382;9.802;2022-10-31T01:53:25;9.15;;;2.15;;
53521;SDS011;39398;48.382;9.802;2022-10-31T01:54:28;12.38;;;2.28;;
53521;SDS011;39398;48.382;9.802;2022-10-31T01:55:34;15.30;;;2.10;;
53521;SDS011;39398;48.382;9.802;2022-10-31T01:56:40;8.38;;;2.30;;
53521;SDS011;39398;48.382;9.802;2022-10-31T01:57:48;5.97;;;2.08;;
53521;SDS011;39398;48.382;9.802;2022-10-31T01:58:52;10.18;;;2.00;;
53521;SDS011;39398;48.382;9.802;2022-10-31T01:59:57;6.70;;;2.25;;
53521;SDS011;39398;48.382;9.802;2022-10-31T02:01:03;11.70;;;2.60;;
53521;SDS011;39398;48.382;9.802;2022-10-31T02:02:08;7.20;;;2.25;;
53521;SDS011;39398;48.382;9.802;2022-10-31T02:03:10;11.43;;;2.25;;
53521;SDS011;39398;48.382;9.802;2022-10-31T02:04:12;9.70;;;2.38;;
53521;SDS011;39398;48.382;9.802;2022-10-31T02:05:16;9.52;;;2.22;;
53521;SDS011;39398;48.382;9.802;2022-10-31T02:06:21;12.13;;;2.75;;
53521;SDS011;39398;48.382;9.802;2022-10-31T02:07:33;8.63;;;2.13;;
53521;SDS011;39398;48.382;9.802;2022-10-31T02:08:39;10.57;;;2.20;;
53521;SDS011;39398;48.382;9.802;2022-10-31T02:09:42;10.50;;;2.72;;
53521;SDS011;39398;48.382;9.802;2022-10-31T02:10:46;12.38;;;2.50;;
53521;SDS011;39398;48.382;9.802;2022-10-31T02:11:47;6.85;;;2.30;;
53521;SDS011;39398;48.382;9.802;2022-10-31T02:12:49;8.80;;;2.50;;
53521;SDS011;39398;48.382;9.802;2022-10-31T02:13:52;10.30;;;2.30;;
53521;SDS011;39398;48.382;9.802;2022-10-31T02:14:54;9.88;;;2.60;;
53521;SDS011;39398;48.382;9.802;2022-10-31T02:15:57;7.30;;;1.88;;
53521;SDS011;39398;48.382;9.802;2022-10-31T02:17:00;11.75;;;2.40;;
53521;SDS011;39398;48.382;9.802;2022-10-31T02:18:02;6.35;;;2.20;;
53521;SDS011;39398;48.382;9.802;2022-10-31T02:19:04;8.07;;;2.10;;
53521;SDS011;39398;48.382;9.802;2022-10-31T02:20:12;7.40;;;2.22;;
53521;SDS011;39398;48.382;9.802;2022-10-31T02:21:17;11.18;;;2.30;;
53521;SDS011;39398;48.382;9.802;2022-10-31T02:22:26;6.93;;;1.70;;
53521;SDS011;39398;48.382;9.802;2022-10-31T02:23:37;7.25;;;1.75;;
53521;SDS011;39398;48.382;9.802;2022-10-31T02:25:02;10.90;;;2.05;;
53521;SDS011;39398;48.382;9.802;2022-10-31T02:26:34;6.32;;;2.33;;
53521;SDS011;39398;48.382;9.802;2022-10-31T02:29:56;10.80;;;2.80;;
53521;SDS011;39398;48.382;9.802;2022-10-31T02:31:18;7.75;;;2.65;;
53521;SDS011;39398;48.382;9.802;2022-10-31T02:32:32;8.85;;;2.45;;
53521;SDS011;39398;48.382;9.802;2022-10-31T02:33:44;5.50;;;2.13;;
53521;SDS011;39398;48.382;9.802;2022-10-31T02:34:52;13.38;;;2.45;;
53521;SDS011;39398;48.382;9.802;2022-10-31T02:36:01;12.43;;;2.42;;
53521;SDS011;39398;48.382;9.802;2022-10-31T02:37:11;10.20;;;2.30;;
53521;SDS011;39398;48.382;9.802;2022-10-31T02:38:20;13.13;;;2.70;;
53521;SDS011;39398;48.382;9.802;2022-10-31T02:39:29;9.43;;;2.63;;
53521;SDS011;39398;48.382;9.802;2022-10-31T02:40:39;7.13;;;2.30;;
53521;SDS011;39398;48.382;9.802;2022-10-31T02:41:50;11.75;;;2.35;;
53521;SDS011;39398;48.382;9.802;2022-10-31T02:42:59;7.97;;;2.38;;
53521;SDS011;39398;48.382;9.802;2022-10-31T02:44:08;8.77;;;2.50;;
53521;SDS011;39398;48.382;9.802;2022-10-31T02:45:13;9.07;;;2.20;;
53521;SDS011;39398;48.382;9.802;2022-10-31T02:46:24;7.75;;;2.80;;
53521;SDS011;39398;48.382;9.802;2022-10-31T02:47:33;7.90;;;2.13;;
53521;SDS011;39398;48.382;9.802;2022-10-31T02:48:37;6.30;;;2.38;;
53521;SDS011;39398;48.382;9.802;2022-10-31T02:49:43;10.07;;;2.65;;
53521;SDS011;39398;48.382;9.802;2022-10-31T02:50:50;9.35;;;2.15;;
53521;SDS011;39398;48.382;9.802;2022-10-31T02:51:56;5.43;;;1.92;;
53521;SDS011;39398;48.382;9.802;2022-10-31T02:52:57;7.72;;;2.30;;
53521;SDS011;39398;48.382;9.802;2022-10-31T02:53:59;8.68;;;2.35;;
53521;SDS011;39398;48.382;9.802;2022-10-31T02:55:08;8.55;;;2.33;;
53521;SDS011;39398;48.382;9.802;2022-10-31T02:56:13;5.85;;;2.35;;
53521;SDS011;39398;48.382;9.802;2022-10-31T02:57:15;8.13;;;2.30;;
53521;SDS011;39398;48.382;9.802;2022-10-31T02:58:21;6.47;;;2.42;;
53521;SDS011;39398;48.382;9.802;2022-10-31T02:59:25;6.95;;;2.33;;
53521;SDS011;39398;48.382;9.802;2022-10-31T03:00:28;8.82;;;2.28;;
53521;SDS011;39398;48.382;9.802;2022-10-31T03:01:36;5.60;;;2.20;;
53521;SDS011;39398;48.382;9.802;2022-10-31T03:03:01;5.60;;;2.17;;
53521;SDS011;39398;48.382;9.802;2022-10-31T03:04:29;8.00;;;2.30;;
53521;SDS011;39398;48.382;9.802;2022-10-31T03:05:41;6.90;;;2.13;;
53521;SDS011;39398;48.382;9.802;2022-10-31T03:06:52;10.05;;;2.40;;
53521;SDS011;39398;48.382;9.802;2022-10-31T03:08:00;12.63;;;2.70;;
53521;SDS011;39398;48.382;9.802;2022-10-31T03:09:09;8.35;;;2.25;;
53521;SDS011;39398;48.382;9.802;2022-10-31T03:10:22;8.95;;;2.10;;
53521;SDS011;39398;48.382;9.802;2022-10-31T03:11:33;6.97;;;2.50;;
53521;SDS011;39398;48.382;9.802;2022-10-31T03:12:45;5.13;;;2.17;;
53521;SDS011;39398;48.382;9.802;2022-10-31T03:13:59;7.35;;;2.38;;
53521;SDS011;39398;48.382;9.802;2022-10-31T03:15:10;11.52;;;2.53;;
53521;SDS011;39398;48.382;9.802;2022-10-31T03:16:16;9.13;;;2.70;;
53521;SDS011;39398;48.382;9.802;2022-10-31T03:17:22;6.03;;;2.25;;
53521;SDS011;39398;48.382;9.802;2022-10-31T03:18:33;5.80;;;2.28;;
53521;SDS011;39398;48.382;9.802;2022-10-31T03:19:39;8.57;;;2.28;;
53521;SDS011;39398;48.382;9.802;2022-10-31T03:20:44;5.97;;;2.13;;
53521;SDS011;39398;48.382;9.802;2022-10-31T03:21:49;10.25;;;2.20;;
53521;SDS011;39398;48.382;9.802;2022-10-31T03:22:54;7.07;;;2.22;;
53521;SDS011;39398;48.382;9.802;2022-10-31T03:23:57;9.07;;;1.90;;
53521;SDS011;39398;48.382;9.802;2022-10-31T03:25:02;9.98;;;2.42;;
53521;SDS011;39398;48.382;9.802;2022-10-31T03:26:05;9.10;;;2.67;;
53521;SDS011;39398;48.382;9.802;2022-10-31T03:27:09;6.15;;;2.30;;
53521;SDS011;39398;48.382;9.802;2022-10-31T03:28:16;7.78;;;2.55;;
53521;SDS011;39398;48.382;9.802;2022-10-31T03:29:25;8.40;;;2.30;;
53521;SDS011;39398;48.382;9.802;2022-10-31T03:30:28;11.15;;;2.70;;
53521;SDS011;39398;48.382;9.802;2022-10-31T03:31:32;7.93;;;2.70;;
53521;SDS011;39398;48.382;9.802;2022-10-31T03:32:39;10.10;;;2.75;;
53521;SDS011;39398;48.382;9.802;2022-10-31T03:33:45;10.88;;;2.67;;
53521;SDS011;39398;48.382;9.802;2022-10-31T03:34:49;8.05;;;2.63;;
53521;SDS011;39398;48.382;9.802;2022-10-31T03:35:52;10.23;;;2.42;;
53521;SDS011;39398;48.382;9.802;2022-10-31T03:36:57;6.85;;;2.38;;
53521;SDS011;39398;48.382;9.802;2022-10-31T03:38:02;8.15;;;2.55;;
53521;SDS011;39398;48.382;9.802;2022-10-31T03:39:08;7.13;;;2.80;;
53521;SDS011;39398;48.382;9.802;2022-10-31T03:40:13;5.95;;;2.28;;
53521;SDS011;39398;48.382;9.802;2022-10-31T03:41:18;5.78;;;2.30;;
53521;SDS011;39398;48.382;9.802;2022-10-31T03:42:23;10.27;;;2.33;;
53521;SDS011;39398;48.382;9.802;2022-10-31T03:43:26;7.18;;;2.58;;
53521;SDS011;39398;48.382;9.802;2022-10-31T03:44:33;5.75;;;2.17;;
53521;SDS011;39398;48.382;9.802;2022-10-31T03:45:36;11.70;;;2.55;;
53521;SDS011;39398;48.382;9.802;2022-10-31T03:46:42;7.75;;;2.55;;
53521;SDS011;39398;48.382;9.802;2022-10-31T03:47:46;8.27;;;2.70;;
53521;SDS011;39398;48.382;9.802;2022-10-31T03:48:47;7.50;;;2.75;;
53521;SDS011;39398;48.382;9.802;2022-10-31T03:49:49;9.48;;;2.60;;
53521;SDS011;39398;48.382;9.802;2022-10-31T03:50:52;8.65;;;2.50;;
53521;SDS011;39398;48.382;9.802;2022-10-31T03:52:02;9.00;;;2.63;;
53521;SDS011;39398;48.382;9.802;2022-10-31T03:53:13;11.35;;;2.40;;
53521;SDS011;39398;48.382;9.802;2022-10-31T03:54:21;4.43;;;2.55;;
53521;SDS011;39398;48.382;9.802;2022-10-31T03:55:27;10.70;;;3.20;;
53521;SDS011;39398;48.382;9.802;2022-10-31T03:56:32;9.52;;;2.70;;
53521;SDS011;39398;48.382;9.802;2022-10-31T03:57:37;13.30;;;3.20;;
53521;SDS011;39398;48.382;9.802;2022-10-31T03:58:45;6.80;;;2.70;;
53521;SDS011;39398;48.382;9.802;2022-10-31T03:59:55;8.95;;;2.80;;
53521;SDS011;39398;48.382;9.802;2022-10-31T04:01:02;6.05;;;2.55;;
53521;SDS011;39398;48.382;9.802;2022-10-31T04:02:07;6.70;;;2.60;;
53521;SDS011;39398;48.382;9.802;2022-10-31T04:03:17;5.47;;;2.45;;
53521;SDS011;39398;48.382;9.802;2022-10-31T04:04:23;7.57;;;2.30;;
53521;SDS011;39398;48.382;9.802;2022-10-31T04:05:26;7.82;;;2.60;;
53521;SDS011;39398;48.382;9.802;2022-10-31T04:06:29;7.75;;;2.70;;
53521;SDS011;39398;48.382;9.802;2022-10-31T04:07:36;9.25;;;2.50;;
53521;SDS011;39398;48.382;9.802;2022-10-31T04:08:43;5.63;;;2.65;;
53521;SDS011;39398;48.382;9.802;2022-10-31T04:09:49;9.60;;;2.83;;
53521;SDS011;39398;48.382;9.802;2022-10-31T04:10:53;13.13;;;2.75;;
53521;SDS011;39398;48.382;9.802;2022-10-31T04:11:56;8.65;;;2.67;;
53521;SDS011;39398;48.382;9.802;2022-10-31T04:13:01;8.93;;;2.80;;
53521;SDS011;39398;48.382;9.802;2022-10-31T04:14:06;6.00;;;2.50;;
53521;SDS011;39398;48.382;9.802;2022-10-31T04:15:08;7.32;;;2.50;;
53521;SDS011;39398;48.382;9.802;2022-10-31T04:16:11;8.27;;;2.83;;
53521;SDS011;39398;48.382;9.802;2022-10-31T04:17:18;8.73;;;2.75;;
53521;SDS011;39398;48.382;9.802;2022-10-31T04:18:24;8.50;;;2.58;;
53521;SDS011;39398;48.382;9.802;2022-10-31T04:19:26;7.47;;;2.65;;
53521;SDS011;39398;48.382;9.802;2022-10-31T04:20:31;7.05;;;2.50;;
53521;SDS011;39398;48.382;9.802;2022-10-31T04:21:34;11.00;;;3.33;;
53521;SDS011;39398;48.382;9.802;2022-10-31T04:22:35;5.38;;;2.35;;
53521;SDS011;39398;48.382;9.802;2022-10-31T04:23:37;7.97;;;2.47;;
53521;SDS011;39398;48.382;9.802;2022-10-31T04:24:39;5.10;;;2.58;;
53521;SDS011;39398;48.382;9.802;2022-10-31T04:25:41;9.02;;;2.60;;
53521;SDS011;39398;48.382;9.802;2022-10-31T04:26:42;9.52;;;2.80;;
53521;SDS011;39398;48.382;9.802;2022-10-31T04:27:44;6.30;;;2.80;;
53521;SDS011;39398;48.382;9.802;2022-10-31T04:28:45;6.22;;;2.60;;
53521;SDS011;39398;48.382;9.802;2022-10-31T04:29:47;12.43;;;3.53;;
53521;SDS011;39398;48.382;9.802;2022-10-31T04:30:51;5.93;;;2.45;;
53521;SDS011;39398;48.382;9.802;2022-10-31T04:31:52;7.82;;;2.70;;
53521;SDS011;39398;48.382;9.802;2022-10-31T04:32:54;6.10;;;2.67;;
53521;SDS011;39398;48.382;9.802;2022-10-31T04:33:57;6.88;;;2.78;;
53521;SDS011;39398;48.382;9.802;2022-10-31T04:34:58;9.05;;;2.75;;
53521;SDS011;39398;48.382;9.802;2022-10-31T04:36:00;11.13;;;2.78;;
53521;SDS011;39398;48.382;9.802;2022-10-31T04:37:01;6.80;;;2.28;;
53521;SDS011;39398;48.382;9.802;2022-10-31T04:38:02;6.20;;;2.65;;
53521;SDS011;39398;48.382;9.802;2022-10-31T04:39:04;7.10;;;2.38;;
53521;SDS011;39398;48.382;9.802;2022-10-31T04:40:06;6.82;;;2.60;;
53521;SDS011;39398;48.382;9.802;2022-10-31T04:41:08;12.13;;;3.10;;
53521;SDS011;39398;48.382;9.802;2022-10-31T04:42:09;6.10;;;2.53;;
53521;SDS011;39398;48.382;9.802;2022-10-31T04:43:11;7.50;;;2.42;;
53521;SDS011;39398;48.382;9.802;2022-10-31T04:44:12;8.73;;;2.63;;
53521;SDS011;39398;48.382;9.802;2022-10-31T04:45:14;7.30;;;2.70;;
53521;SDS011;39398;48.382;9.802;2022-10-31T04:46:21;7.78;;;2.75;;
53521;SDS011;39398;48.382;9.802;2022-10-31T04:47:22;8.52;;;2.70;;
53521;SDS011;39398;48.382;9.802;2022-10-31T04:48:24;8.77;;;3.08;;
53521;SDS011;39398;48.382;9.802;2022-10-31T04:49:27;7.80;;;2.78;;
53521;SDS011;39398;48.382;9.802;2022-10-31T04:50:28;6.72;;;2.60;;
53521;SDS011;39398;48.382;9.802;2022-10-31T04:51:30;10.93;;;2.92;;
53521;SDS011;39398;48.382;9.802;2022-10-31T04:52:31;7.18;;;3.03;;
53521;SDS011;39398;48.382;9.802;2022-10-31T04:53:33;9.02;;;2.88;;
53521;SDS011;39398;48.382;9.802;2022-10-31T04:54:34;9.20;;;2.92;;
53521;SDS011;39398;48.382;9.802;2022-10-31T04:55:36;7.13;;;2.55;;
53521;SDS011;39398;48.382;9.802;2022-10-31T04:56:37;6.88;;;3.00;;
53521;SDS011;39398;48.382;9.802;2022-10-31T04:57:42;9.80;;;2.70;;
53521;SDS011;39398;48.382;9.802;2022-10-31T04:58:44;9.85;;;3.10;;
53521;SDS011;39398;48.382;9.802;2022-10-31T04:59:46;8.27;;;3.25;;
53521;SDS011;39398;48.382;9.802;2022-10-31T05:00:47;8.43;;;2.85;;
53521;SDS011;39398;48.382;9.802;2022-10-31T05:01:52;11.25;;;2.70;;
53521;SDS011;39398;48.382;9.802;2022-10-31T05:02:54;10.13;;;2.90;;
53521;SDS011;39398;48.382;9.802;2022-10-31T05:03:57;7.28;;;2.60;;
53521;SDS011;39398;48.382;9.802;2022-10-31T05:05:00;10.38;;;3.60;;
53521;SDS011;39398;48.382;9.802;2022-10-31T05:06:02;11.40;;;3.60;;
53521;SDS011;39398;48.382;9.802;2022-10-31T05:07:03;8.50;;;2.95;;
53521;SDS011;39398;48.382;9.802;2022-10-31T05:08:05;8.32;;;3.20;;
53521;SDS011;39398;48.382;9.802;2022-10-31T05:09:06;8.65;;;2.83;;
53521;SDS011;39398;48.382;9.802;2022-10-31T05:10:08;7.78;;;2.63;;
53521;SDS011;39398;48.382;9.802;2022-10-31T05:11:10;8.50;;;3.58;;
53521;SDS011;39398;48.382;9.802;2022-10-31T05:12:12;9.15;;;2.95;;
53521;SDS011;39398;48.382;9.802;2022-10-31T05:13:13;7.85;;;2.70;;
53521;SDS011;39398;48.382;9.802;2022-10-31T05:14:15;7.20;;;2.50;;
53521;SDS011;39398;48.382;9.802;2022-10-31T05:15:17;6.75;;;2.67;;
53521;SDS011;39398;48.382;9.802;2022-10-31T05:16:19;11.10;;;3.22;;
53521;SDS011;39398;48.382;9.802;2022-10-31T05:17:21;6.80;;;2.78;;
53521;SDS011;39398;48.382;9.802;2022-10-31T05:18:22;10.10;;;3.42;;
53521;SDS011;39398;48.382;9.802;2022-10-31T05:19:24;10.05;;;3.42;;
53521;SDS011;39398;48.382;9.802;2022-10-31T05:20:28;7.38;;;2.50;;
53521;SDS011;39398;48.382;9.802;2022-10-31T05:21:31;10.27;;;3.00;;
53521;SDS011;39398;48.382;9.802;2022-10-31T05:22:32;9.73;;;2.75;;
53521;SDS011;39398;48.382;9.802;2022-10-31T05:23:34;13.07;;;3.58;;
53521;SDS011;39398;48.382;9.802;2022-10-31T05:24:35;5.50;;;2.65;;
53521;SDS011;39398;48.382;9.802;2022-10-31T05:25:36;8.70;;;2.60;;
53521;SDS011;39398;48.382;9.802;2022-10-31T05:26:38;12.95;;;3.22;;
53521;SDS011;39398;48.382;9.802;2022-10-31T05:27:39;14.65;;;3.20;;
53521;SDS011;39398;48.382;9.802;2022-10-31T05:28:41;7.93;;;2.83;;
53521;SDS011;39398;48.382;9.802;2022-10-31T05:29:43;7.03;;;2.67;;
53521;SDS011;39398;48.382;9.802;2022-10-31T05:30:44;9.68;;;2.72;;
53521;SDS011;39398;48.382;9.802;2022-10-31T05:31:46;5.35;;;3.22;;
53521;SDS011;39398;48.382;9.802;2022-10-31T05:32:48;8.00;;;3.13;;
53521;SDS011;39398;48.382;9.802;2022-10-31T05:33:51;6.65;;;3.00;;
53521;SDS011;39398;48.382;9.802;2022-10-31T05:34:52;12.35;;;3.17;;
53521;SDS011;39398;48.382;9.802;2022-10-31T05:35:55;15.23;;;3.60;;
53521;SDS011;39398;48.382;9.802;2022-10-31T05:36:56;9.55;;;2.95;;
53521;SDS011;39398;48.382;9.802;2022-10-31T05:37:58;13.02;;;3.10;;
53521;SDS011;39398;48.382;9.802;2022-10-31T05:39:00;9.40;;;2.92;;
53521;SDS011;39398;48.382;9.802;2022-10-31T05:40:02;10.02;;;3.05;;
53521;SDS011;39398;48.382;9.802;2022-10-31T05:41:08;8.52;;;3.08;;
53521;SDS011;39398;48.382;9.802;2022-10-31T05:42:10;8.90;;;2.78;;
53521;SDS011;39398;48.382;9.802;2022-10-31T05:43:11;10.20;;;3.78;;
53521;SDS011;39398;48.382;9.802;2022-10-31T05:44:13;8.52;;;3.67;;
53521;SDS011;39398;48.382;9.802;2022-10-31T05:45:15;5.20;;;2.70;;
53521;SDS011;39398;48.382;9.802;2022-10-31T05:46:18;8.15;;;3.45;;
53521;SDS011;39398;48.382;9.802;2022-10-31T05:47:20;8.48;;;2.85;;
53521;SDS011;39398;48.382;9.802;2022-10-31T05:48:21;8.50;;;2.60;;
53521;SDS011;39398;48.382;9.802;2022-10-31T05:49:23;10.20;;;2.90;;
53521;SDS011;39398;48.382;9.802;2022-10-31T05:50:25;8.32;;;3.28;;
53521;SDS011;39398;48.382;9.802;2022-10-31T05:51:29;9.45;;;2.92;;
53521;SDS011;39398;48.382;9.802;2022-10-31T05:52:31;11.07;;;3.03;;
53521;SDS011;39398;48.382;9.802;2022-10-31T05:53:32;7.43;;;3.17;;
53521;SDS011;39398;48.382;9.802;2022-10-31T05:54:33;7.95;;;2.70;;
53521;SDS011;39398;48.382;9.802;2022-10-31T05:55:35;8.77;;;3.25;;
53521;SDS011;39398;48.382;9.802;2022-10-31T05:56:36;8.30;;;2.90;;
53521;SDS011;39398;48.382;9.802;2022-10-31T05:57:38;6.15;;;3.22;;
53521;SDS011;39398;48.382;9.802;2022-10-31T05:58:39;7.65;;;2.97;;
53521;SDS011;39398;48.382;9.802;2022-10-31T05:59:41;8.45;;;3.47;;
53521;SDS011;39398;48.382;9.802;2022-10-31T06:00:42;6.53;;;2.92;;
53521;SDS011;39398;48.382;9.802;2022-10-31T06:01:44;13.27;;;3.28;;
53521;SDS011;39398;48.382;9.802;2022-10-31T06:02:45;10.60;;;3.13;;
53521;SDS011;39398;48.382;9.802;2022-10-31T06:03:47;9.60;;;3.20;;
53521;SDS011;39398;48.382;9.802;2022-10-31T06:04:49;12.23;;;3.70;;
53521;SDS011;39398;48.382;9.802;2022-10-31T06:05:50;10.88;;;3.40;;
53521;SDS011;39398;48.382;9.802;2022-10-31T06:06:57;11.35;;;3.67;;
53521;SDS011;39398;48.382;9.802;2022-10-31T06:07:58;6.75;;;3.25;;
53521;SDS011;39398;48.382;9.802;2022-10-31T06:09:00;6.20;;;3.08;;
53521;SDS011;39398;48.382;9.802;2022-10-31T06:10:03;9.27;;;3.42;;
53521;SDS011;39398;48.382;9.802;2022-10-31T06:11:06;8.65;;;3.50;;
53521;SDS011;39398;48.382;9.802;2022-10-31T06:12:08;8.48;;;3.63;;
53521;SDS011;39398;48.382;9.802;2022-10-31T06:13:09;10.98;;;3.92;;
53521;SDS011;39398;48.382;9.802;2022-10-31T06:14:10;9.38;;;3.45;;
53521;SDS011;39398;48.382;9.802;2022-10-31T06:15:12;10.50;;;3.53;;
53521;SDS011;39398;48.382;9.802;2022-10-31T06:16:14;12.73;;;3.67;;
53521;SDS011;39398;48.382;9.802;2022-10-31T06:17:15;12.23;;;3.20;;
53521;SDS011;39398;48.382;9.802;2022-10-31T06:18:17;10.00;;;3.35;;
53521;SDS011;39398;48.382;9.802;2022-10-31T06:19:18;8.45;;;3.42;;
53521;SDS011;39398;48.382;9.802;2022-10-31T06:20:20;9.68;;;3.47;;
53521;SDS011;39398;48.382;9.802;2022-10-31T06:21:21;13.35;;;3.60;;
53521;SDS011;39398;48.382;9.802;2022-10-31T06:22:24;11.48;;;3.85;;
53521;SDS011;39398;48.382;9.802;2022-10-31T06:23:25;9.68;;;3.45;;
53521;SDS011;39398;48.382;9.802;2022-10-31T06:24:27;11.65;;;3.95;;
53521;SDS011;39398;48.382;9.802;2022-10-31T06:25:28;11.13;;;4.18;;